Hlavní strana
METAR-TAF:

METAR-TAF

Letiště :

Rarotonga, Cookovy ostrovy

zeměpisná šířka: 21-12S, zeměpisná délka: 159-49W, výška: 7 m

Aktuální stav počasí

Zpráva byla vytvořena před 23 minutami, v 00:00 UTC
Severovýchodní vítr 9 kt
Teplota 29°C
Vlhkost vzduchu 74%
Tlak 1013 hPa
Viditelnost 10 km a více
Polojasno ve výšce 2000 ft
Oblačno až skoro zataženo ve výšce 28000 ft

METAR: NCRG 180000Z 05009KT 9999 SCT020 BKN280 29/24 Q1013

Čas: 14:23 (00:23 UTC)

Předpověď počasí

Zpráva byla vytvořena před 1 hodinou a 8 minutami, v 23:15 UTC
Předpověď platná od 18 v 00 UTC do 18 v 24 UTC
Jihovýchodní vítr 8 kt
Viditelnost 10 km a více
Polojasno ve výšce 2000 ft
Oblačno až skoro zataženo ve výšce 10000 ft

TAF: NCRG 172315Z 1800/1824 14008KT 9999 SCT020 BKN100

Stav a předpovědi počasí z více než 4 000 letišť (zprávy METAR a TAF).

Červené a žluté tečky na mapě představují dostupné meteorologické stanice.

Když kurzor umístíte na tečku, zobrazí se název stanice.

Pak kliknutím zobrazíte stav a předpověď počasí.

Chcete-li změnit mapu, kliknutím na zelené tlačítko se znaménkem +mapu přiblížíte, kliknutím na zelené tlačítko se znaménkem – mapu oddálíte a kliknutím na zelené šipky přejdete na sousední mapy.


METAR-TAF: